createdAt,value
2022-12-11T00:01:32.072Z,55.83
2022-12-11T00:04:00.045Z,47.40
2022-12-11T00:06:37.540Z,54.57
2022-12-11T00:09:06.880Z,51.67
2022-12-11T00:11:35.021Z,48.63
2022-12-11T00:14:03.942Z,47.53
2022-12-11T00:16:33.090Z,44.47
2022-12-11T00:19:01.120Z,48.13
2022-12-11T00:21:29.024Z,45.30
2022-12-11T00:23:57.326Z,50.23
2022-12-11T00:26:26.758Z,53.20
2022-12-11T00:28:56.605Z,49.93
2022-12-11T00:31:25.298Z,50.53
2022-12-11T00:33:53.395Z,47.50
2022-12-11T00:36:24.058Z,48.90
2022-12-11T00:41:24.361Z,47.73
2022-12-11T00:44:38.597Z,47.50
2022-12-11T00:47:21.909Z,47.47
2022-12-11T00:50:12.137Z,52.23
2022-12-11T00:52:43.271Z,50.70
2022-12-11T00:57:48.660Z,50.20
2022-12-11T01:03:15.666Z,49.07
2022-12-11T01:06:16.497Z,47.53
2022-12-11T01:08:47.935Z,43.37
2022-12-11T01:11:18.344Z,48.13
2022-12-11T01:13:47.307Z,54.57
2022-12-11T01:16:17.352Z,51.87
2022-12-11T01:18:49.190Z,53.53
2022-12-11T01:21:38.340Z,45.53
2022-12-11T01:24:07.135Z,48.63
2022-12-11T01:26:37.085Z,48.57
2022-12-11T01:29:05.692Z,51.40
2022-12-11T01:31:50.275Z,49.27
2022-12-11T01:34:19.715Z,47.03
2022-12-11T01:36:47.647Z,49.67
2022-12-11T01:39:15.613Z,48.47
2022-12-11T01:41:43.576Z,49.67
2022-12-11T01:44:45.089Z,51.93
2022-12-11T01:47:15.055Z,50.27
2022-12-11T01:49:49.214Z,46.37
2022-12-11T01:54:56.288Z,50.03
2022-12-11T01:57:28.615Z,46.67
2022-12-11T01:59:57.356Z,46.37
2022-12-11T02:02:30.450Z,46.93
2022-12-11T02:04:59.415Z,43.27
2022-12-11T02:07:37.520Z,48.73
2022-12-11T02:10:14.642Z,51.20
2022-12-11T02:12:53.249Z,52.73
2022-12-11T02:15:28.469Z,45.90
2022-12-11T02:18:04.316Z,50.20
2022-12-11T02:20:38.662Z,53.83
2022-12-11T02:23:33.771Z,48.03
2022-12-11T02:26:13.340Z,51.50
2022-12-11T02:28:47.240Z,51.00
2022-12-11T02:31:20.554Z,53.70
2022-12-11T02:33:57.660Z,48.07
2022-12-11T02:36:30.364Z,55.80
2022-12-11T02:39:00.666Z,48.27
2022-12-11T02:41:45.605Z,48.70
2022-12-11T02:44:24.151Z,51.93
2022-12-11T02:46:54.465Z,52.27
2022-12-11T02:49:24.663Z,48.97
2022-12-11T02:51:56.542Z,49.97
2022-12-11T02:54:34.376Z,51.03
2022-12-11T02:57:07.135Z,50.47
2022-12-11T02:59:39.168Z,47.60
2022-12-11T03:02:09.940Z,50.57
2022-12-11T03:04:40.302Z,53.00
2022-12-11T03:07:13.738Z,54.07
2022-12-11T03:09:43.377Z,49.80
2022-12-11T03:12:18.189Z,52.63
2022-12-11T03:14:51.371Z,48.93
2022-12-11T03:17:53.739Z,53.33
2022-12-11T03:23:25.130Z,46.60
2022-12-11T03:25:57.855Z,47.97
2022-12-11T03:28:31.590Z,46.23
2022-12-11T03:31:06.456Z,44.80
2022-12-11T03:33:43.464Z,47.23
2022-12-11T03:36:18.081Z,46.40
2022-12-11T03:38:52.492Z,46.97
2022-12-11T03:41:24.019Z,44.33
2022-12-11T03:43:54.294Z,43.10
2022-12-11T04:00:18.688Z,40.03
2022-12-11T04:03:12.679Z,35.03
2022-12-11T04:05:42.286Z,37.53
2022-12-11T04:08:12.640Z,34.67
2022-12-11T04:10:41.282Z,36.80
2022-12-11T04:13:09.871Z,36.87
2022-12-11T04:15:39.652Z,40.07
2022-12-11T04:18:26.499Z,33.10
2022-12-11T04:21:12.457Z,36.67
2022-12-11T04:23:57.703Z,31.00
2022-12-11T04:26:26.168Z,32.63
2022-12-11T04:28:54.183Z,34.17
2022-12-11T04:31:23.962Z,34.27
2022-12-11T04:33:51.962Z,30.40
2022-12-11T04:36:19.899Z,32.80
2022-12-11T04:38:47.907Z,28.27
2022-12-11T04:41:17.218Z,27.27
2022-12-11T04:43:46.060Z,27.73
2022-12-11T04:46:17.033Z,24.63
2022-12-11T04:51:43.011Z,28.10
2022-12-11T04:54:10.900Z,27.10
2022-12-11T04:56:38.931Z,26.10
2022-12-11T04:59:06.855Z,26.30
2022-12-11T05:01:34.822Z,25.20
2022-12-11T05:04:04.147Z,24.73
2022-12-11T05:06:32.090Z,22.37
2022-12-11T05:09:00.014Z,22.47
2022-12-11T05:11:28.081Z,23.70
2022-12-11T05:13:56.055Z,23.63
2022-12-11T05:16:24.042Z,25.00
2022-12-11T05:18:53.328Z,23.50
2022-12-11T05:21:22.665Z,19.27
2022-12-11T05:23:50.715Z,21.93
2022-12-11T05:26:20.472Z,20.70
2022-12-11T05:28:51.804Z,23.20
2022-12-11T05:31:21.447Z,20.93
2022-12-11T05:33:50.273Z,20.03
2022-12-11T05:36:20.757Z,21.90
2022-12-11T05:38:51.947Z,19.87
2022-12-11T05:41:21.924Z,21.67
2022-12-11T05:43:50.181Z,20.93
2022-12-11T05:46:30.567Z,21.67
2022-12-11T05:49:10.921Z,18.80
2022-12-11T05:51:43.253Z,19.70
2022-12-11T05:57:14.089Z,18.43
2022-12-11T05:59:42.214Z,21.40
2022-12-11T06:02:17.664Z,22.10
2022-12-11T06:04:46.294Z,20.90
2022-12-11T06:07:14.643Z,20.30
2022-12-11T06:18:58.404Z,22.77
2022-12-11T06:21:28.601Z,20.57
2022-12-11T06:26:39.619Z,20.73
2022-12-11T06:29:11.045Z,22.73
2022-12-11T06:31:41.758Z,20.03
2022-12-11T06:34:14.887Z,22.07
2022-12-11T06:36:42.836Z,22.07
2022-12-11T06:39:17.083Z,22.27
2022-12-11T06:44:23.206Z,24.50
2022-12-11T06:46:53.032Z,24.33
2022-12-11T06:49:20.999Z,24.33
2022-12-11T06:51:49.015Z,21.57
2022-12-11T06:54:17.011Z,25.30
2022-12-11T06:56:45.001Z,25.00
2022-12-11T06:59:13.639Z,25.87
2022-12-11T07:01:42.969Z,25.43
2022-12-11T07:04:10.972Z,26.67
2022-12-11T07:06:38.954Z,25.47
2022-12-11T07:09:07.027Z,25.70
2022-12-11T07:11:36.977Z,24.93
2022-12-11T07:14:06.851Z,23.73
2022-12-11T07:16:34.819Z,26.87
2022-12-11T07:19:14.401Z,27.03
2022-12-11T07:21:44.202Z,23.97
2022-12-11T07:24:12.173Z,24.47
2022-12-11T07:26:40.185Z,24.60
2022-12-11T07:29:11.054Z,25.33
2022-12-11T07:31:39.135Z,24.77
2022-12-11T07:34:08.596Z,23.57
2022-12-11T07:36:36.672Z,24.20
2022-12-11T07:39:04.954Z,24.43
2022-12-11T07:41:32.969Z,24.93
2022-12-11T07:44:01.485Z,25.03
2022-12-11T07:46:32.323Z,24.30
2022-12-11T07:49:01.774Z,24.40
2022-12-11T07:51:32.923Z,24.43
2022-12-11T07:54:02.803Z,22.97
2022-12-11T07:56:36.540Z,27.17
2022-12-11T07:59:20.975Z,23.50
2022-12-11T08:05:01.494Z,23.50
2022-12-11T08:07:33.380Z,25.33
2022-12-11T08:10:02.338Z,23.37
2022-12-11T08:12:30.399Z,23.40
2022-12-11T08:15:20.406Z,22.20
2022-12-11T08:17:48.371Z,24.90
2022-12-11T08:24:20.737Z,23.20
2022-12-11T08:26:54.743Z,24.27
2022-12-11T08:29:33.340Z,25.23
2022-12-11T08:32:12.437Z,26.53
2022-12-11T08:44:41.476Z,26.37
2022-12-11T08:50:41.575Z,27.40
2022-12-11T08:53:12.892Z,29.17
2022-12-11T08:55:43.507Z,28.17
2022-12-11T08:58:16.244Z,26.33
2022-12-11T09:00:44.450Z,26.67
2022-12-11T09:03:16.103Z,28.83
2022-12-11T09:09:17.768Z,27.67
2022-12-11T09:11:50.971Z,24.80
2022-12-11T09:17:17.628Z,26.23
2022-12-11T09:19:54.422Z,26.07
2022-12-11T09:22:23.135Z,24.53
2022-12-11T09:24:58.174Z,26.53
2022-12-11T09:27:29.504Z,30.33
2022-12-11T09:30:02.950Z,27.30
2022-12-11T09:32:32.806Z,23.77
2022-12-11T09:35:02.682Z,22.13
2022-12-11T09:37:30.627Z,23.63
2022-12-11T09:40:05.727Z,23.20
2022-12-11T09:42:52.649Z,24.93
2022-12-11T09:45:22.370Z,26.00
2022-12-11T09:47:59.648Z,24.00
2022-12-11T09:50:30.865Z,25.10
2022-12-11T09:53:11.789Z,23.70
2022-12-11T09:55:47.853Z,26.83
2022-12-11T09:58:28.675Z,27.37
2022-12-11T10:01:14.655Z,23.80
2022-12-11T10:04:23.056Z,22.00
2022-12-11T10:07:02.444Z,23.20
2022-12-11T10:09:38.763Z,23.10
2022-12-11T10:12:20.632Z,23.43
2022-12-11T10:15:03.940Z,21.80
2022-12-11T10:17:37.447Z,24.40
2022-12-11T10:20:18.833Z,23.00
2022-12-11T10:22:47.940Z,23.13
2022-12-11T10:25:21.995Z,25.13
2022-12-11T10:27:50.907Z,24.20
2022-12-11T10:30:34.461Z,29.73
2022-12-11T10:33:12.735Z,37.53
2022-12-11T10:35:46.324Z,42.13
2022-12-11T10:38:17.305Z,26.03
2022-12-11T10:40:47.880Z,23.47
2022-12-11T10:43:17.536Z,21.63
2022-12-11T10:45:52.930Z,39.03
2022-12-11T10:48:23.563Z,31.23
2022-12-11T10:51:04.215Z,30.53
2022-12-11T10:53:36.276Z,26.57
2022-12-11T10:56:09.079Z,45.30
2022-12-11T10:58:50.710Z,29.90
2022-12-11T11:01:25.869Z,28.80
2022-12-11T11:04:07.141Z,25.73
2022-12-11T11:06:36.260Z,27.80
2022-12-11T11:09:30.444Z,23.20
2022-12-11T11:12:07.867Z,25.47
2022-12-11T11:14:36.264Z,23.10
2022-12-11T11:17:13.105Z,23.97
2022-12-11T11:19:47.942Z,25.03
2022-12-11T11:22:19.031Z,24.67
2022-12-11T11:24:53.724Z,25.00
2022-12-11T11:27:36.117Z,24.20
2022-12-11T11:30:09.341Z,26.93
2022-12-11T11:32:40.095Z,25.37
2022-12-11T11:35:25.550Z,25.20
2022-12-11T11:37:59.216Z,24.77
2022-12-11T11:40:30.437Z,27.80
2022-12-11T11:43:06.269Z,25.40
2022-12-11T11:45:40.893Z,23.40
2022-12-11T11:48:24.013Z,25.43
2022-12-11T11:50:53.926Z,24.83
2022-12-11T11:53:28.420Z,25.63
2022-12-11T11:56:04.279Z,24.60
2022-12-11T11:58:40.047Z,24.90
2022-12-11T12:01:15.350Z,28.67
2022-12-11T12:03:43.717Z,23.70
2022-12-11T12:06:20.696Z,24.57
2022-12-11T12:08:59.086Z,25.73
2022-12-11T12:11:35.936Z,22.33
2022-12-11T12:14:43.617Z,23.47
2022-12-11T12:17:13.773Z,22.13
2022-12-11T12:19:51.205Z,23.33
2022-12-11T12:22:37.872Z,21.60
2022-12-11T12:25:18.310Z,21.47
2022-12-11T12:27:57.765Z,20.30
2022-12-11T12:30:27.832Z,24.40
2022-12-11T12:33:06.688Z,21.60
2022-12-11T12:35:38.370Z,22.73
2022-12-11T12:38:16.401Z,23.13
2022-12-11T12:40:55.806Z,23.73
2022-12-11T12:43:40.499Z,20.77
2022-12-11T12:46:18.980Z,21.97
2022-12-11T12:48:47.143Z,21.93
2022-12-11T12:51:17.545Z,50.23
2022-12-11T12:53:51.096Z,33.97
2022-12-11T12:56:19.514Z,23.23
2022-12-11T12:58:47.984Z,22.00
2022-12-11T13:01:19.513Z,22.13
2022-12-11T13:03:54.964Z,21.10
2022-12-11T13:06:37.778Z,20.73
2022-12-11T13:09:17.083Z,24.00
2022-12-11T13:11:46.227Z,25.43
2022-12-11T13:14:30.281Z,22.90
2022-12-11T13:17:24.175Z,21.53
2022-12-11T13:20:10.347Z,20.63
2022-12-11T13:22:54.582Z,23.17
2022-12-11T13:25:28.506Z,21.93
2022-12-11T13:28:27.094Z,23.53
2022-12-11T13:31:24.398Z,19.07
2022-12-11T13:33:54.077Z,19.67
2022-12-11T13:39:27.579Z,17.80
2022-12-11T13:42:00.972Z,20.30
2022-12-11T13:44:32.936Z,22.17
2022-12-11T13:47:05.791Z,20.10
2022-12-11T13:49:37.094Z,18.67
2022-12-11T13:52:06.656Z,18.03
2022-12-11T13:54:37.522Z,23.20
2022-12-11T13:57:20.952Z,19.47
2022-12-11T13:59:52.732Z,19.93
2022-12-11T14:02:25.073Z,17.30
2022-12-11T14:04:56.464Z,18.93
2022-12-11T14:07:27.958Z,20.90
2022-12-11T14:10:01.599Z,19.60
2022-12-11T14:12:32.293Z,21.63
2022-12-11T14:15:03.000Z,20.83
2022-12-11T14:17:32.599Z,20.47
2022-12-11T14:20:02.707Z,19.07
2022-12-11T14:22:36.746Z,19.63
2022-12-11T14:25:21.818Z,18.83
2022-12-11T14:27:53.299Z,18.47
2022-12-11T14:30:26.312Z,20.20
2022-12-11T14:32:58.057Z,20.60
2022-12-11T14:35:35.546Z,18.97
2022-12-11T14:38:12.399Z,21.80
2022-12-11T14:40:46.154Z,18.23
2022-12-11T14:43:21.550Z,21.93
2022-12-11T14:45:51.199Z,19.43
2022-12-11T14:48:23.850Z,18.60
2022-12-11T14:50:54.638Z,20.07
2022-12-11T14:53:27.116Z,17.47
2022-12-11T14:55:56.714Z,18.00
2022-12-11T14:58:27.636Z,27.63
2022-12-11T15:00:59.852Z,32.80
2022-12-11T15:03:33.502Z,21.87
2022-12-11T15:06:01.966Z,18.57
2022-12-11T15:08:39.248Z,19.37
2022-12-11T15:11:09.832Z,24.33
2022-12-11T15:13:49.067Z,19.70
2022-12-11T15:16:17.496Z,20.97
2022-12-11T15:18:50.629Z,21.90
2022-12-11T15:21:27.498Z,20.70
2022-12-11T15:23:57.738Z,21.77
2022-12-11T15:26:35.547Z,22.07
2022-12-11T15:29:07.205Z,21.70
2022-12-11T15:31:36.026Z,20.67
2022-12-11T15:34:25.486Z,22.13
2022-12-11T15:36:53.574Z,22.20
2022-12-11T15:39:21.481Z,23.77
2022-12-11T15:41:50.162Z,22.87
2022-12-11T15:44:22.527Z,25.27
2022-12-11T15:46:50.763Z,20.57
2022-12-11T15:54:34.685Z,22.50
2022-12-11T15:57:15.201Z,26.03
2022-12-11T15:59:45.806Z,25.17
2022-12-11T16:02:18.793Z,26.80
2022-12-11T16:04:51.138Z,25.77
2022-12-11T16:07:37.878Z,59.63
2022-12-11T16:10:07.717Z,33.60
2022-12-11T16:12:37.987Z,29.10
2022-12-11T16:15:23.473Z,26.83
2022-12-11T16:21:57.984Z,25.67
2022-12-11T16:24:53.883Z,25.47
2022-12-11T16:31:15.724Z,29.00
2022-12-11T16:43:34.114Z,25.60
2022-12-11T16:50:10.635Z,27.20
2022-12-11T16:52:57.598Z,24.87
2022-12-11T16:58:34.301Z,27.03
2022-12-11T17:10:35.009Z,22.97
2022-12-11T17:13:15.275Z,22.50
2022-12-11T17:15:44.814Z,23.70
2022-12-11T17:18:20.341Z,24.30
2022-12-11T17:20:48.410Z,26.50
2022-12-11T17:23:19.221Z,24.33
2022-12-11T17:25:55.940Z,23.03
2022-12-11T17:28:24.142Z,24.93
2022-12-11T17:30:56.874Z,22.77
2022-12-11T17:33:32.873Z,21.73
2022-12-11T17:36:02.696Z,23.87
2022-12-11T17:38:38.242Z,20.33
2022-12-11T17:41:09.308Z,24.47
2022-12-11T17:43:52.089Z,22.77
2022-12-11T17:46:24.477Z,22.90
2022-12-11T17:48:53.280Z,23.27
2022-12-11T17:51:28.455Z,22.63
2022-12-11T17:53:58.563Z,22.90
2022-12-11T17:56:38.379Z,21.47
2022-12-11T17:59:07.097Z,23.53
2022-12-11T18:01:35.131Z,21.13
2022-12-11T18:04:05.672Z,22.03
2022-12-11T18:06:51.224Z,23.43
2022-12-11T18:10:20.374Z,23.63
2022-12-11T18:12:57.253Z,23.63
2022-12-11T18:15:57.702Z,22.00
2022-12-11T18:18:52.863Z,24.53
2022-12-11T18:21:36.002Z,22.80
2022-12-11T18:24:24.912Z,21.10
2022-12-11T18:26:54.849Z,21.00
2022-12-11T18:29:46.382Z,23.43
2022-12-11T18:32:18.720Z,21.23
2022-12-11T18:34:46.677Z,24.37
2022-12-11T18:37:16.620Z,20.97
2022-12-11T18:39:51.742Z,22.37
2022-12-11T18:42:35.388Z,22.60
2022-12-11T18:45:08.230Z,21.40
2022-12-11T18:47:37.381Z,25.43
2022-12-11T18:50:09.878Z,23.87
2022-12-11T18:52:44.444Z,21.87
2022-12-11T18:55:14.599Z,23.17
2022-12-11T18:57:42.820Z,24.10
2022-12-11T19:00:14.015Z,22.20
2022-12-11T19:02:42.119Z,22.33
2022-12-11T19:05:15.055Z,25.67
2022-12-11T19:07:44.508Z,23.43
2022-12-11T19:10:14.302Z,21.53
2022-12-11T19:12:47.161Z,22.10
2022-12-11T19:15:48.809Z,22.23
2022-12-11T19:18:25.582Z,20.13
2022-12-11T19:21:20.683Z,20.93
2022-12-11T19:23:49.592Z,21.90
2022-12-11T19:26:42.711Z,27.10
2022-12-11T19:29:35.596Z,25.27
2022-12-11T19:35:19.996Z,20.93
2022-12-11T19:41:26.721Z,21.60
2022-12-11T19:43:59.271Z,20.50
2022-12-11T19:46:28.652Z,22.93
2022-12-11T19:49:14.424Z,23.60
2022-12-11T19:51:47.930Z,19.87
2022-12-11T19:54:22.190Z,21.87
2022-12-11T19:56:50.237Z,20.90
2022-12-11T19:59:19.001Z,23.07
2022-12-11T20:01:47.962Z,20.23
2022-12-11T20:04:25.396Z,21.43
2022-12-11T20:06:57.881Z,20.13
2022-12-11T20:09:26.274Z,19.70
2022-12-11T20:11:56.843Z,19.40
2022-12-11T20:14:27.651Z,22.93
2022-12-11T20:17:11.338Z,23.13
2022-12-11T20:19:49.407Z,19.33
2022-12-11T20:22:18.781Z,19.77
2022-12-11T20:24:48.853Z,20.07
2022-12-11T20:27:17.086Z,22.00
2022-12-11T20:29:45.073Z,22.77
2022-12-11T20:32:15.507Z,19.17
2022-12-11T20:34:52.214Z,19.77
2022-12-11T20:40:14.325Z,20.80
2022-12-11T20:42:44.729Z,19.67
2022-12-11T20:45:18.285Z,21.42
2022-12-11T20:47:46.321Z,19.33
2022-12-11T20:50:21.201Z,19.37
2022-12-11T20:52:49.223Z,21.50
2022-12-11T20:55:17.261Z,19.50
2022-12-11T20:57:45.568Z,21.63
2022-12-11T21:00:14.680Z,19.50
2022-12-11T21:02:42.837Z,20.83
2022-12-11T21:05:11.495Z,18.47
2022-12-11T21:07:40.969Z,18.83
2022-12-11T21:10:17.214Z,20.53
2022-12-11T21:12:45.879Z,20.87
2022-12-11T21:15:14.372Z,20.13
2022-12-11T21:17:43.128Z,23.03
2022-12-11T21:20:29.965Z,18.30
2022-12-11T21:23:00.849Z,18.27
2022-12-11T21:25:29.275Z,19.90
2022-12-11T21:27:57.331Z,16.97
2022-12-11T21:30:25.377Z,17.90
2022-12-11T21:32:53.500Z,18.30
2022-12-11T21:35:21.741Z,17.50
2022-12-11T21:37:59.773Z,17.87
2022-12-11T21:40:31.264Z,20.67
2022-12-11T21:42:59.194Z,19.83
2022-12-11T21:46:06.103Z,17.43
2022-12-11T21:48:34.531Z,20.27
2022-12-11T21:51:08.153Z,18.00
2022-12-11T21:53:36.690Z,16.90
2022-12-11T21:56:19.305Z,16.57
2022-12-11T21:58:50.112Z,16.30
2022-12-11T22:01:21.679Z,13.77
2022-12-11T22:03:52.771Z,15.53
2022-12-11T22:06:21.374Z,14.87
2022-12-11T22:11:58.081Z,14.27
2022-12-11T22:14:26.697Z,15.30
2022-12-11T22:16:54.755Z,13.60
2022-12-11T22:19:23.991Z,14.40
2022-12-11T22:21:54.519Z,14.50
2022-12-11T22:24:22.389Z,13.90
2022-12-11T22:26:51.719Z,13.37
2022-12-11T22:29:19.684Z,14.47
2022-12-11T22:31:47.627Z,14.80
2022-12-11T22:34:15.745Z,15.63
2022-12-11T22:36:43.662Z,14.50
2022-12-11T22:39:33.552Z,15.67
2022-12-11T22:42:52.098Z,15.27
2022-12-11T22:46:03.735Z,17.83
2022-12-11T22:48:32.950Z,15.60
2022-12-11T22:51:05.792Z,15.53
2022-12-11T22:53:33.794Z,15.07
2022-12-11T22:56:05.955Z,15.37
2022-12-11T22:58:34.483Z,15.80
2022-12-11T23:01:04.719Z,14.63
2022-12-11T23:03:32.866Z,16.27
2022-12-11T23:06:05.180Z,15.43
2022-12-11T23:08:34.488Z,14.70
2022-12-11T23:11:02.681Z,15.07
2022-12-11T23:13:30.745Z,16.07
2022-12-11T23:16:09.785Z,15.20
2022-12-11T23:18:58.653Z,13.00
2022-12-11T23:21:33.112Z,14.53
2022-12-11T23:24:02.002Z,13.73
2022-12-11T23:26:30.887Z,15.03
2022-12-11T23:29:00.742Z,15.03
2022-12-11T23:31:30.963Z,15.53
2022-12-11T23:34:10.676Z,14.30
2022-12-11T23:36:44.394Z,13.57
2022-12-11T23:39:24.988Z,15.43
2022-12-11T23:41:52.893Z,12.67
2022-12-11T23:44:20.850Z,13.43
2022-12-11T23:46:52.346Z,13.93
2022-12-11T23:49:28.145Z,12.70
2022-12-11T23:51:56.456Z,13.53
2022-12-11T23:54:24.582Z,14.37
2022-12-11T23:56:53.101Z,13.90
2022-12-11T23:59:21.156Z,13.60
